Time;durP1;ratioP1;P1;durP2;ratioP2;P2;SDS_P1;SDS_P2;PMS_P1;PMS_P2;Temp;Humidity;BMP_temperature;BMP_pressure;BME280_temperature;BME280_humidity;BME280_pressure;Samples;Min_cycle;Max_cycle;Signal;HPM_P1;HPM_P2
2021/03/29 00:00:07;;;;;;;16.42;12.88;;;;;;;6.94;72.57;100379.42;1696512;81;22072;-68
2021/03/29 00:02:35;;;;;;;14.58;12.35;;;;;;;6.92;72.54;100382.96;1703186;82;21744;-69
2021/03/29 00:05:06;;;;;;;15.25;11.70;;;;;;;6.88;72.48;100377.36;1709607;82;21759;-68
2021/03/29 00:07:34;;;;;;;18.37;12.50;;;;;;;6.83;72.60;100382.65;1713889;82;21691;-68
2021/03/29 00:10:05;;;;;;;15.13;11.35;;;;;;;6.85;72.85;100380.88;1708492;82;21107;-70
2021/03/29 00:12:35;;;;;;;13.30;11.33;;;;;;;6.90;72.78;100384.28;1713014;81;22738;-69
2021/03/29 00:15:06;;;;;;;14.40;11.60;;;;;;;6.84;72.65;100387.00;1702670;82;21641;-71
2021/03/29 00:17:35;;;;;;;13.38;10.85;;;;;;;6.80;72.69;100384.02;1702063;82;21655;-67
2021/03/29 00:20:19;;;;;;;13.00;10.93;;;;;;;6.81;72.59;100388.34;1699438;81;21610;-69
2021/03/29 00:22:48;;;;;;;16.23;11.55;;;;;;;6.83;72.43;100387.88;1713781;82;21667;-70
2021/03/29 00:25:19;;;;;;;;;;;;;;;6.79;72.40;100399.27;1723446;82;22116;-69
2021/03/29 00:27:47;;;;;;;13.03;10.70;;;;;;;6.81;72.74;100400.11;1709719;82;20571;-68
2021/03/29 00:30:23;;;;;;;14.38;10.53;;;;;;;6.89;72.47;100399.98;1740623;80;21654;-67
2021/03/29 00:32:53;;;;;;;12.37;10.58;;;;;;;6.82;72.67;100392.25;1728229;80;21626;-68
2021/03/29 00:35:23;;;;;;;13.55;10.53;;;;;;;6.75;72.41;100394.53;1713878;81;21189;-67
2021/03/29 00:37:53;;;;;;;12.58;10.05;;;;;;;6.72;72.50;100401.55;1714837;82;22470;-67
2021/03/29 00:40:23;;;;;;;13.28;10.50;;;;;;;6.69;72.48;100401.62;1732904;80;21650;-69
2021/03/29 00:42:58;;;;;;;11.20;9.05;;;;;;;6.66;72.43;100406.87;1715051;81;21539;-64
2021/03/29 00:45:27;;;;;;;12.10;9.03;;;;;;;6.72;73.03;100405.02;1733441;81;21182;-66
2021/03/29 00:47:54;;;;;;;;;;;;;;;6.77;72.64;100408.44;1721291;81;21848;-66
2021/03/29 00:50:46;;;;;;;13.60;9.95;;;;;;;6.74;72.66;100419.38;1743125;79;22411;-65
2021/03/29 00:53:16;;;;;;;12.63;10.48;;;;;;;6.61;72.52;100414.77;1750949;80;21563;-66
2021/03/29 00:55:47;;;;;;;12.18;10.65;;;;;;;6.57;72.52;100415.28;1714631;80;21649;-68
2021/03/29 00:58:19;;;;;;;13.98;11.08;;;;;;;6.54;72.49;100419.23;1746578;79;21681;-67
2021/03/29 01:01:21;;;;;;;13.00;10.75;;;;;;;6.50;72.49;100412.33;1726884;81;21571;-68
2021/03/29 01:03:55;;;;;;;13.25;10.25;;;;;;;6.55;72.99;100420.09;1687071;83;21878;-68
2021/03/29 01:06:25;;;;;;;13.20;10.50;;;;;;;6.56;72.82;100420.52;1652407;83;21225;-68
2021/03/29 01:08:57;;;;;;;12.93;10.80;;;;;;;6.45;72.75;100420.66;1682471;83;21595;-68
2021/03/29 01:11:27;;;;;;;14.20;10.48;;;;;;;6.37;72.88;100423.37;1659940;83;21663;-68
2021/03/29 01:14:04;;;;;;;13.28;11.25;;;;;;;6.34;72.98;100419.48;1679318;84;21638;-68
2021/03/29 01:16:37;;;;;;;12.33;10.58;;;;;;;6.30;73.03;100423.48;1668369;84;21241;-68
2021/03/29 01:19:10;;;;;;;14.13;11.12;;;;;;;6.39;73.48;100423.36;1666107;84;21600;-66
2021/03/29 01:21:54;;;;;;;18.20;12.53;;;;;;;6.46;73.08;100422.82;1694211;82;21667;-67
2021/03/29 01:24:55;;;;;;;14.55;10.80;;;;;;;6.38;73.05;100424.23;1659159;83;21161;-66
2021/03/29 01:27:33;;;;;;;15.05;11.57;;;;;;;6.37;72.98;100431.66;1691937;82;21241;-67
2021/03/29 01:30:05;;;;;;;15.32;11.65;;;;;;;6.33;72.87;100432.14;1656520;84;21885;-70
2021/03/29 01:32:33;;;;;;;13.85;10.23;;;;;;;6.23;73.67;100434.02;1690551;82;21671;-71
2021/03/29 01:35:01;;;;;;;15.35;12.20;;;;;;;6.24;73.67;100435.72;1684508;83;21588;-67
2021/03/29 01:37:29;;;;;;;17.57;11.63;;;;;;;6.34;73.27;100435.61;1662521;84;21214;-67
2021/03/29 01:39:57;;;;;;;;;;;;;;;6.22;73.45;100434.88;1667543;84;21628;-68
2021/03/29 01:42:27;;;;;;;15.03;12.60;;;;;;;6.19;73.53;100444.05;1681545;83;22444;-68
2021/03/29 01:44:54;;;;;;;13.62;11.63;;;;;;;6.11;73.43;100443.28;1680174;83;21519;-66
2021/03/29 01:47:22;;;;;;;16.12;11.90;;;;;;;6.07;73.42;100446.82;1678627;83;21689;-68
2021/03/29 01:49:50;;;;;;;15.35;11.97;;;;;;;6.04;73.47;100451.61;1661930;84;21495;-67
2021/03/29 01:52:18;;;;;;;15.98;12.03;;;;;;;6.17;73.86;100452.34;1673776;83;21699;-66
2021/03/29 01:54:47;;;;;;;14.45;11.48;;;;;;;6.21;73.38;100451.41;1693640;82;22060;-66
2021/03/29 01:57:14;;;;;;;15.90;12.37;;;;;;;6.16;73.46;100455.86;1697454;82;21687;-64
2021/03/29 01:59:42;;;;;;;;;;;;;;;6.11;73.41;100455.03;1692250;82;21760;-68
2021/03/29 02:02:10;;;;;;;16.40;12.30;;;;;;;6.03;73.85;100454.27;1678732;83;20535;-68
2021/03/29 02:04:38;;;;;;;16.70;12.23;;;;;;;5.99;73.50;100448.22;1723189;82;21475;-66
2021/03/29 02:07:06;;;;;;;16.67;11.95;;;;;;;5.97;73.95;100456.51;1720966;82;22318;-70
2021/03/29 02:09:35;;;;;;;;;;;;;;;6.01;74.03;100446.89;1721184;81;22042;-69
2021/03/29 02:12:06;;;;;;;18.05;12.95;;;;;;;6.06;73.83;100454.22;1711508;82;20277;-69
2021/03/29 02:14:34;;;;;;;16.95;12.95;;;;;;;6.04;73.83;100455.98;1694862;81;21138;-67
2021/03/29 02:17:05;;;;;;;16.62;12.70;;;;;;;5.98;73.67;100458.22;1717313;81;21678;-69
2021/03/29 02:19:34;;;;;;;17.12;12.23;;;;;;;5.95;73.70;100458.66;1714889;81;22115;-66
2021/03/29 02:22:03;;;;;;;21.37;12.88;;;;;;;5.97;73.74;100458.23;1719859;82;21679;-66
2021/03/29 02:24:31;;;;;;;17.02;11.63;;;;;;;6.03;74.05;100468.63;1715430;81;21634;-65
2021/03/29 02:26:59;;;;;;;;;;;;;;;6.14;73.87;100463.27;1722280;81;21682;-68
2021/03/29 02:29:29;;;;;;;18.65;12.78;;;;;;;6.13;74.00;100469.38;1714680;81;27292;-67
2021/03/29 02:31:58;;;;;;;14.85;11.70;;;;;;;6.02;73.79;100464.27;1716167;82;22097;-67
2021/03/29 02:34:26;;;;;;;17.55;12.63;;;;;;;5.98;74.07;100460.83;1717045;81;21213;-70
2021/03/29 02:36:56;;;;;;;16.90;11.85;;;;;;;5.93;74.09;100464.34;1726395;81;21206;-68
2021/03/29 02:39:23;;;;;;;17.82;11.70;;;;;;;5.94;74.68;100468.23;1684980;83;21631;-69
2021/03/29 02:41:51;;;;;;;;;;;;;;;6.02;74.51;100472.11;1726607;81;21611;-70
2021/03/29 02:44:19;;;;;;;15.15;11.80;;;;;;;5.97;74.55;100476.09;1718168;81;21890;-69
2021/03/29 02:46:50;;;;;;;;;;;;;;;5.92;74.63;100477.84;1702586;81;21153;-70
2021/03/29 02:49:18;;;;;;;15.13;11.43;;;;;;;5.81;75.05;100477.94;1713488;81;20215;-67
2021/03/29 02:51:47;;;;;;;17.52;12.05;;;;;;;5.77;74.87;100476.24;1718771;81;21852;-67
2021/03/29 02:54:15;;;;;;;15.43;11.35;;;;;;;5.75;74.62;100483.22;1724424;81;21639;-67
2021/03/29 02:56:44;;;;;;;;;;;;;;;5.87;75.09;100481.37;1710318;81;22108;-67
2021/03/29 02:59:17;;;;;;;17.92;13.40;;;;;;;5.90;75.04;100481.36;1720733;81;20415;-65
2021/03/29 03:01:45;;;;;;;16.30;12.20;;;;;;;5.85;74.92;100486.60;1714544;81;21682;-68
2021/03/29 03:04:15;;;;;;;14.03;11.05;;;;;;;5.83;74.82;100488.36;1719648;81;21580;-69
2021/03/29 03:06:45;;;;;;;14.18;11.65;;;;;;;5.81;74.85;100484.46;1720335;81;21682;-69
2021/03/29 03:09:14;;;;;;;17.23;11.80;;;;;;;5.82;74.75;100484.02;1714285;82;21555;-69
2021/03/29 03:11:45;;;;;;;16.60;11.35;;;;;;;5.94;74.96;100494.80;1717121;81;21586;-68
2021/03/29 03:14:14;;;;;;;15.15;11.03;;;;;;;6.04;74.84;100493.38;1718359;81;21584;-68
2021/03/29 03:16:44;;;;;;;14.03;10.90;;;;;;;6.07;74.53;100496.42;1712479;81;21694;-70
2021/03/29 03:19:13;;;;;;;13.53;10.40;;;;;;;6.02;74.54;100493.84;1720489;81;21613;-69
2021/03/29 03:21:43;;;;;;;13.98;11.18;;;;;;;6.04;74.41;100500.36;1717463;81;21144;-70
2021/03/29 03:24:12;;;;;;;14.63;10.68;;;;;;;6.03;74.32;100502.12;1714502;81;27273;-66
2021/03/29 03:26:40;;;;;;;13.30;11.05;;;;;;;5.97;74.94;100505.22;1718349;82;21296;-65
2021/03/29 03:29:08;;;;;;;14.60;10.90;;;;;;;6.01;74.87;100506.94;1714628;81;27232;-68
2021/03/29 03:31:36;;;;;;;;;;;;;;;6.04;74.65;100513.42;1695899;82;21647;-69
2021/03/29 03:34:03;;;;;;;13.60;10.68;;;;;;;5.95;74.88;100510.48;1714535;81;22502;-66
2021/03/29 03:36:32;;;;;;;17.02;10.45;;;;;;;5.90;74.86;100519.20;1721256;81;21653;-69
2021/03/29 03:39:00;;;;;;;15.83;11.73;;;;;;;5.83;74.87;100519.23;1689977;82;21543;-66
2021/03/29 03:41:33;;;;;;;15.08;11.25;;;;;;;5.74;74.91;100527.15;1689979;81;21163;-69
2021/03/29 03:44:01;;;;;;;12.15;10.40;;;;;;;5.76;75.37;100528.00;1710519;81;21659;-67
2021/03/29 03:46:40;;;;;;;14.68;11.08;;;;;;;5.85;75.29;100527.91;1714948;81;22159;-65
2021/03/29 03:49:14;;;;;;;13.70;10.45;;;;;;;5.79;75.08;100531.89;1720497;81;21682;-66
2021/03/29 03:51:44;;;;;;;13.70;10.75;;;;;;;5.68;75.32;100531.57;1707504;82;22727;-66
2021/03/29 03:54:12;;;;;;;15.80;11.25;;;;;;;5.67;75.46;100530.72;1715542;81;21243;-68
2021/03/29 03:56:39;;;;;;;15.28;10.75;;;;;;;5.61;75.70;100526.83;1714802;82;21647;-67
2021/03/29 03:59:08;;;;;;;15.10;10.95;;;;;;;5.66;75.92;100530.27;1715604;81;21796;-66
2021/03/29 04:02:04;;;;;;;16.73;12.13;;;;;;;5.74;75.70;100531.06;1712659;82;21233;-66
2021/03/29 04:04:33;;;;;;;13.78;11.28;;;;;;;5.61;75.88;100535.55;1715170;81;21575;-64
2021/03/29 04:07:02;;;;;;;13.32;10.53;;;;;;;5.55;75.79;100539.94;1715538;82;21980;-66
2021/03/29 04:12:14;;;;;;;14.47;10.65;;;;;;;5.62;76.12;100543.78;1714394;82;21968;-64
2021/03/29 04:14:42;;;;;;;18.75;11.83;;;;;;;5.76;75.80;100550.62;1722616;81;21213;-65
2021/03/29 04:17:13;;;;;;;15.43;11.18;;;;;;;5.72;75.75;100551.09;1720018;81;21676;-65
2021/03/29 04:19:41;;;;;;;16.73;12.70;;;;;;;5.69;75.61;100558.08;1720835;81;22210;-63
2021/03/29 04:22:09;;;;;;;16.70;11.53;;;;;;;5.62;75.71;100559.44;1720830;81;21623;-64
2021/03/29 04:24:37;;;;;;;16.15;11.68;;;;;;;5.50;75.79;100556.05;1715860;81;22162;-64
2021/03/29 04:27:05;;;;;;;;;;;;;;;5.55;76.18;100559.50;1719585;82;21964;-64
2021/03/29 04:29:34;;;;;;;19.55;11.88;;;;;;;5.67;75.98;100565.94;1721255;81;20516;-63
2021/03/29 04:32:02;;;;;;;;;;;;;;;5.60;75.78;100559.89;1723113;81;21615;-64
2021/03/29 04:34:30;;;;;;;18.48;12.13;;;;;;;5.54;75.97;100566.88;1713665;82;21422;-63
2021/03/29 04:36:58;;;;;;;17.40;12.25;;;;;;;5.51;75.86;100565.63;1719962;81;22071;-65
2021/03/29 04:39:25;;;;;;;14.85;10.50;;;;;;;5.52;75.91;100572.55;1693573;82;21584;-63
2021/03/29 04:41:53;;;;;;;;;;;;;;;5.63;75.93;100579.86;1722984;81;21588;-67
2021/03/29 04:44:21;;;;;;;15.65;11.48;;;;;;;5.76;75.87;100580.19;1712294;81;20699;-65
2021/03/29 04:46:50;;;;;;;16.95;11.85;;;;;;;5.77;75.66;100583.23;1718249;81;21205;-63
2021/03/29 04:49:18;;;;;;;;;;;;;;;5.79;75.43;100580.17;1718263;81;22086;-66
2021/03/29 04:51:45;;;;;;;19.30;12.45;;;;;;;5.81;75.30;100584.08;1718736;81;20509;-64
2021/03/29 04:54:13;;;;;;;17.48;12.35;;;;;;;5.69;75.24;100579.84;1713884;81;21576;-66
2021/03/29 04:56:41;;;;;;;17.32;12.20;;;;;;;5.64;75.63;100588.12;1716266;81;21504;-66
2021/03/29 04:59:09;;;;;;;;;;;;;;;5.75;75.70;100585.00;1720574;81;21517;-69
2021/03/29 05:01:38;;;;;;;18.05;12.60;;;;;;;5.80;75.59;100588.86;1711072;81;21153;-67
2021/03/29 05:04:06;;;;;;;;;;;;;;;5.74;75.46;100594.14;1708029;81;21591;-68
2021/03/29 05:06:34;;;;;;;18.60;11.97;;;;;;;5.75;75.57;100595.44;1701015;82;20591;-66
2021/03/29 05:09:04;;;;;;;15.83;12.07;;;;;;;5.76;75.34;100594.54;1714558;82;21592;-66
2021/03/29 05:14:15;;;;;;;20.52;11.78;;;;;;;5.84;75.42;100604.50;1702222;82;22112;-67
2021/03/29 05:16:45;;;;;;;16.48;12.63;;;;;;;5.95;75.28;100602.23;1711143;82;21628;-65
2021/03/29 05:19:14;;;;;;;16.37;12.85;;;;;;;5.96;75.07;100597.03;1701273;82;21525;-69
2021/03/29 05:21:47;;;;;;;16.07;12.05;;;;;;;5.91;74.95;100602.69;1699945;82;22248;-67
2021/03/29 05:24:17;;;;;;;19.20;12.78;;;;;;;5.85;74.95;100599.69;1701685;82;21560;-60
2021/03/29 05:26:44;;;;;;;20.50;12.50;;;;;;;5.88;75.02;100612.28;1702319;82;24530;-61
2021/03/29 05:29:12;;;;;;;18.65;13.25;;;;;;;5.91;75.26;100612.27;1701435;82;21594;-59
2021/03/29 05:31:40;;;;;;;;;;;;;;;5.99;75.06;100609.18;1703260;82;21695;-60
2021/03/29 05:34:12;;;;;;;17.52;13.43;;;;;;;5.99;74.99;100615.70;1703418;82;20697;-60
2021/03/29 05:36:39;;;;;;;21.23;13.80;;;;;;;5.97;74.76;100617.05;1705398;82;21634;-61
2021/03/29 05:39:11;;;;;;;20.25;15.20;;;;;;;5.98;74.60;100621.38;1704510;82;21513;-58
2021/03/29 05:41:39;;;;;;;22.42;15.20;;;;;;;5.97;74.42;100619.66;1698319;82;21305;-59
2021/03/29 05:44:08;;;;;;;22.35;16.12;;;;;;;5.94;74.84;100624.86;1698356;82;21696;-60
2021/03/29 05:46:42;;;;;;;24.77;16.87;;;;;;;6.00;74.65;100631.36;1700720;82;21583;-58
2021/03/29 05:49:10;;;;;;;22.00;15.40;;;;;;;5.99;74.47;100637.90;1701190;82;21668;-59
2021/03/29 05:51:38;;;;;;;21.55;16.02;;;;;;;5.94;74.50;100637.91;1700432;82;22280;-61
2021/03/29 05:54:07;;;;;;;21.33;15.35;;;;;;;5.96;74.57;100640.55;1697032;82;21654;-61
2021/03/29 05:56:38;;;;;;;22.50;15.25;;;;;;;6.05;74.26;100641.79;1693491;82;21190;-64
2021/03/29 05:59:12;;;;;;;22.20;15.95;;;;;;;6.02;74.35;100648.33;1697764;82;21619;-65
2021/03/29 06:01:49;;;;;;;20.88;15.43;;;;;;;6.13;74.52;100644.33;1702031;82;21583;-64
2021/03/29 06:04:39;;;;;;;23.87;16.37;;;;;;;6.17;74.12;100650.80;1705728;81;22082;-63
2021/03/29 06:07:17;;;;;;;19.37;14.68;;;;;;;6.17;74.00;100656.03;1710006;81;21216;-62
2021/03/29 06:09:49;;;;;;;18.77;13.43;;;;;;;6.14;73.75;100654.77;1725089;80;21603;-60
2021/03/29 06:12:18;;;;;;;19.87;14.78;;;;;;;6.13;73.70;100660.00;1703649;82;21667;-68
2021/03/29 06:14:48;;;;;;;20.60;15.00;;;;;;;6.07;73.75;100658.30;1713331;81;21617;-65
2021/03/29 06:17:21;;;;;;;19.42;13.88;;;;;;;6.16;73.96;100659.53;1714390;81;22042;-65
2021/03/29 06:19:53;;;;;;;23.50;15.48;;;;;;;6.31;73.70;100666.79;1687618;81;21230;-64
2021/03/29 06:22:36;;;;;;;21.50;15.98;;;;;;;6.31;73.50;100666.79;1714244;81;21556;-65
2021/03/29 06:25:21;;;;;;;25.48;15.55;;;;;;;6.30;73.25;100668.55;1719174;81;21190;-63
2021/03/29 06:27:54;;;;;;;17.52;14.10;;;;;;;6.20;73.31;100674.74;1712703;81;21665;-62
2021/03/29 06:30:34;;;;;;;21.73;14.98;;;;;;;6.21;73.43;100675.15;1713271;81;21666;-58
2021/03/29 06:33:15;;;;;;;19.85;14.07;;;;;;;6.28;73.40;100677.28;1714600;81;21709;-58
2021/03/29 06:35:47;;;;;;;19.95;13.98;;;;;;;6.39;73.43;100687.20;1716808;81;21138;-58
2021/03/29 06:44:04;;;;;;;22.73;15.95;;;;;;;6.43;72.88;100696.28;1744303;79;23295;-60
2021/03/29 06:46:32;;;;;;;20.88;14.98;;;;;;;6.35;72.85;100702.48;1718674;81;21540;-60
2021/03/29 06:49:01;;;;;;;24.00;15.38;;;;;;;6.27;73.07;100702.97;1718155;80;21955;-64
2021/03/29 06:51:33;;;;;;;20.25;14.45;;;;;;;6.19;73.36;100703.03;1716794;82;21640;-62
2021/03/29 06:54:07;;;;;;;22.50;16.62;;;;;;;6.35;73.70;100701.17;1715697;82;21603;-63
2021/03/29 06:56:38;;;;;;;22.70;15.88;;;;;;;6.43;72.99;100703.27;1719672;82;21631;-63
2021/03/29 06:59:11;;;;;;;20.62;15.72;;;;;;;6.42;72.99;100709.36;1714086;80;21607;-63
2021/03/29 07:01:53;;;;;;;23.60;16.62;;;;;;;6.42;72.94;100708.94;1710161;82;21941;-63
2021/03/29 07:04:23;;;;;;;22.30;16.30;;;;;;;6.45;72.91;100712.41;1717705;82;21602;-62
2021/03/29 07:06:51;;;;;;;20.37;16.02;;;;;;;6.47;72.81;100705.41;1713792;82;21608;-64
2021/03/29 07:09:19;;;;;;;25.25;16.82;;;;;;;6.53;72.67;100706.20;1717108;82;21588;-63
2021/03/29 07:11:48;;;;;;;26.40;16.27;;;;;;;6.66;72.82;100712.64;1719627;81;21743;-62
2021/03/29 07:14:21;;;;;;;;;;;;;;;6.79;72.49;100716.86;1721162;82;22097;-65
2021/03/29 07:16:51;;;;;;;21.57;16.20;;;;;;;6.79;72.26;100716.41;1721112;82;20587;-64
2021/03/29 07:19:18;;;;;;;21.65;16.05;;;;;;;6.82;72.17;100721.63;1688097;82;21635;-68
2021/03/29 07:21:46;;;;;;;20.75;15.93;;;;;;;6.92;71.95;100724.14;1709032;82;27127;-61
2021/03/29 07:24:14;;;;;;;;;;;;;;;6.98;71.49;100721.00;1695400;82;21198;-63
2021/03/29 07:26:55;;;;;;;22.93;17.30;;;;;;;7.01;71.24;100722.29;1720941;82;22021;-65
2021/03/29 07:29:31;;;;;;;24.20;17.45;;;;;;;6.98;71.22;100723.62;1728326;82;21179;-63
2021/03/29 07:32:03;;;;;;;26.60;17.30;;;;;;;6.99;71.16;100726.67;1714871;82;21556;-64
2021/03/29 07:34:48;;;;;;;24.43;17.52;;;;;;;7.08;71.22;100725.69;1719483;82;21635;-65
2021/03/29 07:37:43;;;;;;;24.35;17.65;;;;;;;7.11;71.01;100732.20;1714651;82;21616;-70
2021/03/29 07:40:23;;;;;;;28.45;17.70;;;;;;;7.11;71.04;100738.74;1711879;82;22152;-63
2021/03/29 07:42:52;;;;;;;22.93;17.48;;;;;;;7.07;70.70;100741.42;1716196;80;21608;-60
2021/03/29 07:45:22;;;;;;;23.83;17.77;;;;;;;7.12;70.78;100744.83;1716880;82;21652;-64
2021/03/29 07:47:57;;;;;;;23.83;18.00;;;;;;;7.19;70.62;100753.89;1718059;82;21686;-62
2021/03/29 07:50:31;;;;;;;;;;;;;;;7.23;70.21;100749.95;1719779;82;21485;-62
2021/03/29 07:56:01;;;;;;;29.67;17.57;;;;;;;7.23;70.53;100754.73;1807028;76;23224;-60
2021/03/29 07:58:29;;;;;;;25.82;19.00;;;;;;;7.23;70.52;100763.89;1729137;81;21677;-67
2021/03/29 08:01:05;;;;;;;27.58;19.40;;;;;;;7.25;70.12;100763.88;1729913;81;22092;-60
2021/03/29 08:03:41;;;;;;;26.02;19.82;;;;;;;7.19;70.15;100766.98;1736730;81;21245;-60
2021/03/29 08:06:40;;;;;;;32.83;23.20;;;;;;;7.18;70.24;100773.11;1783623;78;22208;-61
2021/03/29 08:09:13;;;;;;;30.25;20.72;;;;;;;7.18;70.25;100775.72;1776980;79;21584;-62
2021/03/29 08:11:59;;;;;;;27.75;20.12;;;;;;;7.17;69.95;100777.05;1788058;79;21556;-61
2021/03/29 08:14:40;;;;;;;25.62;18.73;;;;;;;7.17;70.03;100780.97;1790076;77;22145;-60
2021/03/29 08:17:45;;;;;;;29.40;20.00;;;;;;;7.26;70.40;100782.17;1786604;79;21615;-61
2021/03/29 08:20:27;;;;;;;29.15;19.65;;;;;;;7.37;69.92;100785.98;1791807;79;21587;-61
2021/03/29 08:23:32;;;;;;;30.27;19.77;;;;;;;7.34;69.96;100783.39;1789608;79;21564;-61
2021/03/29 08:26:14;;;;;;;24.50;19.50;;;;;;;7.40;69.85;100783.31;1762357;77;21572;-62
2021/03/29 08:29:16;;;;;;;28.23;20.25;;;;;;;7.50;69.32;100787.58;1785585;79;22089;-62
2021/03/29 08:32:04;;;;;;;27.82;20.72;;;;;;;7.51;69.27;100785.36;1786250;79;21573;-60
2021/03/29 08:34:52;;;;;;;32.25;19.55;;;;;;;7.50;69.25;100790.19;1790214;79;21662;-60
2021/03/29 08:37:40;;;;;;;31.68;22.45;;;;;;;7.51;69.04;100789.74;1784764;78;22222;-60
2021/03/29 08:40:25;;;;;;;;;;;;;;;7.51;69.19;100786.67;1790321;78;21575;-59
2021/03/29 08:42:58;;;;;;;32.90;22.32;;;;;;;7.75;69.33;100785.51;1779610;78;27174;-59
2021/03/29 08:45:27;;;;;;;29.52;21.45;;;;;;;7.97;68.59;100787.41;1789247;78;21642;-59
2021/03/29 08:47:57;;;;;;;30.72;21.90;;;;;;;8.10;68.11;100792.03;1785458;79;21126;-62
2021/03/29 08:50:31;;;;;;;31.60;22.05;;;;;;;8.16;67.72;100796.31;1780836;77;21989;-60
2021/03/29 08:53:11;;;;;;;32.30;21.00;;;;;;;8.22;67.51;100804.08;1783498;77;21665;-58
2021/03/29 08:55:41;;;;;;;29.98;21.42;;;;;;;8.27;67.14;100800.06;1790420;78;21975;-60
2021/03/29 08:58:09;;;;;;;30.17;21.42;;;;;;;8.24;67.28;100807.99;1773407;79;21221;-59
2021/03/29 09:00:42;;;;;;;31.37;22.87;;;;;;;8.31;67.17;100801.33;1757362;80;21665;-60
2021/03/29 09:03:19;;;;;;;29.75;21.62;;;;;;;8.39;66.85;100807.31;1757066;78;21577;-59
2021/03/29 09:05:48;;;;;;;36.40;22.35;;;;;;;8.46;66.84;100802.88;1782777;78;21556;-59
2021/03/29 09:08:16;;;;;;;32.98;23.12;;;;;;;8.55;66.42;100804.47;1780885;79;22184;-59
2021/03/29 09:10:45;;;;;;;33.02;23.95;;;;;;;8.60;65.97;100809.20;1772418;79;21517;-59
2021/03/29 09:13:14;;;;;;;;;;;;;;;8.62;66.04;100809.19;1780976;79;21536;-58
2021/03/29 09:15:45;;;;;;;30.10;21.55;;;;;;;8.62;65.78;100808.73;1779760;79;20579;-58
2021/03/29 09:18:16;;;;;;;35.13;22.82;;;;;;;8.56;65.93;100818.88;1772075;79;21675;-59
2021/03/29 09:20:46;;;;;;;39.58;23.32;;;;;;;8.51;65.82;100820.72;1778595;78;22368;-59
2021/03/29 09:23:17;;;;;;;33.15;23.57;;;;;;;8.47;65.84;100819.02;1777343;79;21127;-59
2021/03/29 09:25:47;;;;;;;33.78;22.77;;;;;;;8.55;65.91;100818.89;1778283;79;21539;-60
2021/03/29 09:30:57;;;;;;;;;;;;;;;9.00;65.67;100816.39;1737520;80;21602;-68
2021/03/29 09:33:25;;;;;;;27.87;21.65;;;;;;;9.16;64.81;100820.94;1741246;80;22100;-59
2021/03/29 09:35:54;;;;;;;31.62;21.62;;;;;;;9.16;64.35;100822.25;1762317;79;21134;-60
2021/03/29 09:38:39;;;;;;;36.38;23.22;;;;;;;9.26;64.29;100817.23;1765929;79;21552;-59
2021/03/29 09:41:28;;;;;;;40.17;27.82;;;;;;;9.33;63.62;100821.94;1774548;79;22200;-59
2021/03/29 09:43:58;;;;;;;38.65;24.18;;;;;;;9.32;62.60;100825.02;1783302;79;21641;-59
2021/03/29 09:46:30;;;;;;;38.65;26.82;;;;;;;9.31;62.63;100827.67;1774851;78;23025;-60
2021/03/29 09:49:11;;;;;;;37.28;25.40;;;;;;;9.24;62.91;100824.28;1778613;79;21620;-58
2021/03/29 09:51:40;;;;;;;34.15;25.32;;;;;;;9.32;62.86;100830.70;1777079;79;22576;-59
2021/03/29 09:54:35;;;;;;;37.58;26.12;;;;;;;9.40;62.58;100820.05;1770281;78;21703;-59
2021/03/29 09:57:21;;;;;;;37.48;26.10;;;;;;;9.42;62.33;100830.06;1777481;78;21217;-60
2021/03/29 09:59:50;;;;;;;35.95;24.82;;;;;;;9.40;62.09;100838.42;1778207;79;21900;-59
2021/03/29 10:02:24;;;;;;;34.85;25.85;;;;;;;9.28;62.28;100832.96;1774859;79;21561;-61
2021/03/29 10:05:06;;;;;;;41.23;29.15;;;;;;;9.35;62.14;100831.50;1779172;79;21091;-60
2021/03/29 10:07:37;;;;;;;36.17;24.60;;;;;;;9.53;61.66;100836.86;1776773;79;21594;-60
2021/03/29 10:10:07;;;;;;;35.50;25.68;;;;;;;9.68;61.38;100839.64;1748080;79;21572;-59
2021/03/29 10:12:36;;;;;;;35.05;24.75;;;;;;;9.67;60.54;100840.52;1777033;79;22033;-59
2021/03/29 10:15:11;;;;;;;36.50;26.05;;;;;;;9.64;61.40;100847.13;1773947;79;21603;-60
2021/03/29 10:17:39;;;;;;;37.98;25.90;;;;;;;9.66;60.81;100843.17;1780646;79;21524;-59
2021/03/29 10:20:13;;;;;;;37.53;27.50;;;;;;;9.70;61.14;100844.41;1776443;79;21697;-65
2021/03/29 10:22:41;;;;;;;39.78;25.52;;;;;;;9.88;60.45;100850.17;1738730;80;21550;-58
2021/03/29 10:27:56;;;;;;;41.03;31.13;;;;;;;10.24;59.89;100849.83;1845060;76;28744;-57
2021/03/29 10:30:27;;;;;;;35.25;26.80;;;;;;;10.41;59.93;100856.05;1819474;77;21553;-56
2021/03/29 10:33:00;;;;;;;34.58;26.02;;;;;;;10.47;59.47;100849.36;1818507;77;22169;-58
2021/03/29 10:35:29;;;;;;;35.45;25.50;;;;;;;10.51;59.62;100855.41;1822455;77;21621;-59
2021/03/29 10:37:57;;;;;;;42.53;28.42;;;;;;;10.62;59.54;100850.73;1826812;77;21401;-59
2021/03/29 10:40:27;;;;;;;37.93;27.67;;;;;;;10.74;58.89;100850.91;1825028;77;21622;-59
2021/03/29 10:42:55;;;;;;;;;;;;;;;10.96;58.66;100855.63;1767415;80;21135;-61
2021/03/29 10:45:22;;;;;;;38.38;25.88;;;;;;;11.15;57.38;100846.81;1791985;78;22137;-59
2021/03/29 10:47:51;;;;;;;33.42;23.57;;;;;;;11.15;57.27;100856.91;1796092;78;21643;-58
2021/03/29 10:50:21;;;;;;;31.02;24.20;;;;;;;11.20;57.23;100847.57;1760217;79;21174;-58
2021/03/29 10:52:48;;;;;;;49.63;34.23;;;;;;;11.31;57.49;100852.09;1779420;78;21596;-62
2021/03/29 10:55:17;;;;;;;43.45;29.37;;;;;;;11.42;56.42;100855.77;1787338;78;21660;-57
2021/03/29 10:57:45;;;;;;;34.65;25.88;;;;;;;11.42;56.46;100858.41;1788379;79;21672;-60
2021/03/29 11:00:14;;;;;;;;;;;;;;;11.52;56.18;100861.19;1787033;79;21672;-59
2021/03/29 11:02:41;;;;;;;35.30;25.02;;;;;;;11.50;55.60;100862.54;1782938;79;20491;-58
2021/03/29 11:05:11;;;;;;;33.30;24.50;;;;;;;11.40;55.97;100858.90;1772722;78;21695;-58
2021/03/29 11:07:38;;;;;;;35.60;26.48;;;;;;;11.49;56.20;100855.56;1788400;79;22089;-59
2021/03/29 11:10:09;;;;;;;37.58;26.70;;;;;;;11.60;55.65;100851.33;1791598;78;21659;-60
2021/03/29 11:12:37;;;;;;;36.85;24.82;;;;;;;11.75;55.71;100859.22;1784947;79;21677;-58
2021/03/29 11:15:07;;;;;;;33.58;24.23;;;;;;;11.87;54.68;100860.20;1762233;80;21676;-60
2021/03/29 11:17:37;;;;;;;31.97;24.75;;;;;;;11.90;54.53;100859.73;1742078;80;21203;-60
2021/03/29 11:20:06;;;;;;;35.08;26.05;;;;;;;11.86;54.61;100857.61;1760647;79;21584;-64
2021/03/29 11:22:34;;;;;;;39.13;27.35;;;;;;;11.92;54.72;100862.72;1731822;80;22043;-63
2021/03/29 11:25:02;;;;;;;;;;;;;;;11.97;54.09;100862.14;1764886;79;21604;-58
2021/03/29 11:27:30;;;;;;;34.13;24.10;;;;;;;12.00;53.64;100859.89;1777529;78;20602;-58
2021/03/29 11:29:58;;;;;;;39.92;25.72;;;;;;;11.99;53.75;100864.28;1763386;79;21663;-59
2021/03/29 11:32:26;;;;;;;30.32;23.62;;;;;;;11.81;53.92;100866.09;1763926;80;21124;-59
2021/03/29 11:34:56;;;;;;;33.60;24.10;;;;;;;11.80;54.22;100857.79;1758789;79;22109;-60
2021/03/29 11:37:26;;;;;;;41.23;25.80;;;;;;;11.88;54.24;100859.31;1770200;79;21611;-60
2021/03/29 11:39:55;;;;;;;33.53;25.77;;;;;;;11.92;54.06;100861.87;1774475;79;21549;-59
2021/03/29 11:42:23;;;;;;;32.67;24.20;;;;;;;11.96;53.95;100860.44;1770841;79;21619;-61
2021/03/29 11:44:51;;;;;;;33.70;25.08;;;;;;;12.13;53.91;100859.05;1759115;79;21162;-60
2021/03/29 11:47:18;;;;;;;36.65;26.00;;;;;;;12.23;53.68;100856.10;1763128;79;21977;-61
2021/03/29 11:49:46;;;;;;;33.98;25.95;;;;;;;12.26;53.60;100864.36;1765160;79;21611;-60
2021/03/29 11:52:14;;;;;;;30.68;23.98;;;;;;;12.24;53.54;100855.20;1760719;79;21612;-65
2021/03/29 11:54:42;;;;;;;;;;;;;;;12.12;53.26;100838.42;1779102;79;21679;-58
2021/03/29 11:57:11;;;;;;;33.83;25.23;;;;;;;12.25;52.74;100854.27;1759462;79;20492;-61
2021/03/29 11:59:45;;;;;;;;;;;;;;;12.20;53.64;100857.97;1758859;78;22062;-63
2021/03/29 12:02:13;;;;;;;32.35;25.27;;;;;;;12.15;53.37;100857.23;1761248;79;20589;-64
2021/03/29 12:04:46;;;;;;;40.55;29.12;;;;;;;12.15;53.29;100860.75;1754846;80;21178;-61